Impacts TAF Board INFO
FOR SITUATIONAL AWARENESS. NOT TO BE USED FOR FLIGHT PLANNING PURPOSES.
IDs:

PANC - Anchorage Intl, AK, US

Issued at 0535 UTC 25 Nov 2017
Updated at 0935 UTC 25 Nov 2017
Potential Impact None Slight Moderate High
Time0853Z 25/10Z 25/11Z 25/12Z 25/13Z 25/14Z 25/15Z 25/16Z 25/17Z 25/18Z 25/19Z 25/20Z 25/21Z 25/22Z>>
Type OBS PRVL PRVL PRVL PRVL PRVL PRVL PRVL PRVL PRVL PRVL PRVL PRVL PRVL
VIS 10 >6 >6 >6 >6 >6 >6 >6 >6 >6 >6 >6 >6 >6
CIG -- -- -- -- -- -- -- -- -- -- -- -- -- --
Cover CLR SKC SKC SKC SKC SKC SKC SKC SKC SKC SKC SKC SKC SKC
FltCat VFR VFR VFR VFR VFR VFR VFR VFR VFR VFR VFR VFR VFR VFR
WX -- -- -- -- -- -- -- -- -- -- -- -- -- --
WDir 340 360 360 360 360 10 10 10 10 10 10 10 20 20
WSpd 15 10 10 10 10 10 10 10 10 10 10 10 4 4
WGst 23 23 23 23 23 -- -- -- -- -- -- -- -- --

Raw TAF
PANC 250535Z 2506/2612 36010G23KT P6SM SKC
  FM251400 01010KT P6SM SKC
  FM252100 02004KT P6SM SKC


Raw METAR
PANC 250853Z 34015G23KT 10SM CLR M07/M15 A2970 RMK AO2 SLP061 T10721150 410561072 51010
PANC 250753Z 35012G20KT 10SM CLR M07/M16 A2969 RMK AO2 SLP057 T10721156
PANC 250653Z 35014G23KT 10SM CLR M07/M15 A2969 RMK AO2 SLP056 T10721150

METAR Board
Radar Display
Forecast Discussion

FOR SITUATIONAL AWARENESS. NOT TO BE USED FOR FLIGHT PLANNING PURPOSES.